createdAt,value
2022-10-06T00:01:20.746Z,3.43
2022-10-06T00:05:29.705Z,3.33
2022-10-06T00:09:40.441Z,3.03
2022-10-06T00:13:49.541Z,2.87
2022-10-06T00:17:59.545Z,2.90
2022-10-06T00:22:08.545Z,2.87
2022-10-06T00:26:19.259Z,2.97
2022-10-06T00:30:31.583Z,2.20
2022-10-06T00:34:40.645Z,2.30
2022-10-06T00:38:49.921Z,2.60
2022-10-06T00:43:02.006Z,2.70
2022-10-06T00:47:11.086Z,2.13
2022-10-06T00:51:20.465Z,2.03
2022-10-06T00:55:29.522Z,1.70
2022-10-06T00:59:41.783Z,2.30
2022-10-06T01:03:56.626Z,2.17
2022-10-06T01:08:06.122Z,2.33
2022-10-06T01:12:16.225Z,2.23
2022-10-06T01:16:28.443Z,2.40
2022-10-06T01:20:38.821Z,2.10
2022-10-06T01:24:52.875Z,1.80
2022-10-06T01:29:02.204Z,1.90
2022-10-06T01:33:11.401Z,3.10
2022-10-06T01:37:20.510Z,2.40
2022-10-06T01:41:33.601Z,2.50
2022-10-06T01:45:42.783Z,2.60
2022-10-06T01:49:51.865Z,2.20
2022-10-06T01:54:01.063Z,2.50
2022-10-06T01:58:11.702Z,2.27
2022-10-06T02:02:21.384Z,2.00
2022-10-06T02:06:30.894Z,2.23
2022-10-06T02:10:40.282Z,1.97
2022-10-06T02:14:51.021Z,1.97
2022-10-06T02:19:00.140Z,1.50
2022-10-06T02:23:09.197Z,1.70
2022-10-06T02:27:18.290Z,2.27
2022-10-06T02:31:29.063Z,2.43
2022-10-06T02:35:38.226Z,2.57
2022-10-06T02:39:47.445Z,2.07
2022-10-06T02:43:56.887Z,2.53
2022-10-06T02:48:07.524Z,2.30
2022-10-06T02:52:16.903Z,2.03
2022-10-06T02:56:27.283Z,1.73
2022-10-06T03:00:36.464Z,1.83
2022-10-06T03:04:47.042Z,2.60
2022-10-06T03:08:57.844Z,2.23
2022-10-06T03:13:08.202Z,2.60
2022-10-06T03:17:17.466Z,2.20
2022-10-06T03:21:31.165Z,2.03
2022-10-06T03:25:40.324Z,2.40
2022-10-06T03:29:49.465Z,2.17
2022-10-06T03:33:59.021Z,2.23
2022-10-06T03:38:09.622Z,2.27
2022-10-06T03:42:18.744Z,2.53
2022-10-06T03:46:29.565Z,3.20
2022-10-06T03:50:38.867Z,3.67
2022-10-06T03:54:49.463Z,2.50
2022-10-06T03:59:01.166Z,2.30
2022-10-06T04:03:11.106Z,2.50
2022-10-06T04:07:20.364Z,2.57
2022-10-06T04:11:32.583Z,1.97
2022-10-06T04:15:41.822Z,2.20
2022-10-06T04:19:50.925Z,2.70
2022-10-06T04:24:01.502Z,2.20
2022-10-06T04:28:12.302Z,2.10
2022-10-06T04:32:21.342Z,2.13
2022-10-06T04:36:32.523Z,2.03
2022-10-06T04:40:41.603Z,1.70
2022-10-06T04:44:52.165Z,1.90
2022-10-06T04:49:01.323Z,1.90
2022-10-06T04:53:10.369Z,1.50
2022-10-06T04:57:19.563Z,1.57
2022-10-06T05:01:31.921Z,1.60
2022-10-06T05:05:40.944Z,1.97
2022-10-06T05:09:50.103Z,1.43
2022-10-06T05:14:00.019Z,2.33
2022-10-06T05:18:10.641Z,1.63
2022-10-06T05:22:19.861Z,2.30
2022-10-06T05:26:31.242Z,1.77
2022-10-06T05:30:40.241Z,1.93
2022-10-06T05:34:50.903Z,1.97
2022-10-06T05:39:00.421Z,2.33
2022-10-06T05:43:09.320Z,1.40
2022-10-06T05:47:18.446Z,1.50
2022-10-06T05:51:31.443Z,1.80
2022-10-06T05:55:40.763Z,1.50
2022-10-06T05:59:49.902Z,1.20
2022-10-06T06:04:00.646Z,3.10
2022-10-06T06:08:11.825Z,2.40
2022-10-06T06:12:21.124Z,2.00
2022-10-06T06:16:32.482Z,2.10
2022-10-06T06:20:41.684Z,1.70
2022-10-06T06:24:52.405Z,2.50
2022-10-06T06:29:04.467Z,1.70
2022-10-06T06:33:14.525Z,1.83
2022-10-06T06:37:23.626Z,2.07
2022-10-06T06:41:38.146Z,2.40
2022-10-06T06:45:47.470Z,1.40
2022-10-06T06:49:56.647Z,1.87
2022-10-06T06:54:06.845Z,2.17
2022-10-06T06:58:17.525Z,2.00
2022-10-06T07:02:30.108Z,2.50
2022-10-06T07:06:40.746Z,2.77
2022-10-06T07:10:49.926Z,2.27
2022-10-06T07:15:17.763Z,2.70
2022-10-06T07:19:44.684Z,3.00
2022-10-06T07:24:11.345Z,2.63
2022-10-06T07:28:20.480Z,2.73
2022-10-06T07:32:32.186Z,2.97
2022-10-06T07:36:41.364Z,2.73
2022-10-06T07:45:41.663Z,2.73
2022-10-06T07:49:52.564Z,2.80
2022-10-06T07:54:03.209Z,3.17
2022-10-06T07:58:14.004Z,3.47
2022-10-06T08:02:23.572Z,2.50
2022-10-06T08:06:34.269Z,2.70
2022-10-06T08:10:43.526Z,2.90
2022-10-06T08:14:52.951Z,2.77
2022-10-06T08:19:02.326Z,3.07
2022-10-06T08:23:12.925Z,3.37
2022-10-06T08:27:23.685Z,2.43
2022-10-06T08:31:33.597Z,2.90
2022-10-06T08:35:42.845Z,2.83
2022-10-06T08:39:53.985Z,3.10
2022-10-06T08:44:07.406Z,3.50
2022-10-06T08:48:20.206Z,3.33
2022-10-06T08:52:47.904Z,3.77
2022-10-06T08:57:06.405Z,2.97
2022-10-06T09:01:18.969Z,3.53
2022-10-06T09:05:30.909Z,4.10
2022-10-06T09:09:55.830Z,3.27
2022-10-06T09:14:14.466Z,3.80
2022-10-06T09:18:48.980Z,3.23
2022-10-06T09:22:58.489Z,3.33
2022-10-06T09:27:19.903Z,4.50
2022-10-06T09:31:33.002Z,3.13
2022-10-06T09:36:06.624Z,3.70
2022-10-06T09:40:36.963Z,3.27
2022-10-06T09:44:55.267Z,3.03
2022-10-06T09:49:27.803Z,3.30
2022-10-06T09:53:39.385Z,3.87
2022-10-06T09:57:53.985Z,4.27
2022-10-06T10:02:05.244Z,3.57
2022-10-06T10:06:27.885Z,3.73
2022-10-06T10:10:37.685Z,3.57
2022-10-06T10:14:46.763Z,3.47
2022-10-06T10:18:56.121Z,3.13
2022-10-06T10:23:19.044Z,3.07
2022-10-06T10:27:33.125Z,2.97
2022-10-06T10:31:53.267Z,3.73
2022-10-06T10:36:04.685Z,3.23
2022-10-06T10:40:37.649Z,3.27
2022-10-06T10:44:55.612Z,2.80
2022-10-06T10:49:11.625Z,3.13
2022-10-06T10:53:28.845Z,3.13
2022-10-06T10:57:44.286Z,2.90
2022-10-06T11:01:58.349Z,3.40
2022-10-06T11:06:20.287Z,3.00
2022-10-06T11:10:33.203Z,3.20
2022-10-06T11:14:55.479Z,3.03
2022-10-06T11:19:16.625Z,3.53
2022-10-06T11:23:51.244Z,3.20
2022-10-06T11:28:10.005Z,2.93
2022-10-06T11:32:28.346Z,3.90
2022-10-06T11:36:48.405Z,3.27
2022-10-06T11:41:10.520Z,3.87
2022-10-06T11:45:25.246Z,3.57
2022-10-06T11:49:59.844Z,3.30
2022-10-06T11:54:37.805Z,2.77
2022-10-06T11:59:14.568Z,3.60
2022-10-06T12:04:05.303Z,3.53
2022-10-06T12:08:17.043Z,3.87
2022-10-06T12:13:39.084Z,3.63
2022-10-06T12:17:34.166Z,3.67
2022-10-06T12:22:01.126Z,3.60
2022-10-06T12:26:27.504Z,3.37
2022-10-06T12:30:52.716Z,3.63
2022-10-06T12:35:15.205Z,3.53
2022-10-06T12:39:25.706Z,3.60
2022-10-06T12:44:01.045Z,3.47
2022-10-06T12:48:17.985Z,4.60
2022-10-06T12:52:50.183Z,3.80
2022-10-06T12:57:01.247Z,4.87
2022-10-06T13:01:14.377Z,3.87
2022-10-06T13:05:24.145Z,3.83
2022-10-06T13:09:33.128Z,3.20
2022-10-06T13:13:49.207Z,3.60
2022-10-06T13:18:12.002Z,3.63
2022-10-06T13:22:21.130Z,3.17
2022-10-06T13:26:34.905Z,2.77
2022-10-06T13:30:44.016Z,3.30
2022-10-06T13:34:54.604Z,3.50
2022-10-06T13:39:06.409Z,4.03
2022-10-06T13:43:20.466Z,3.23
2022-10-06T13:47:31.024Z,3.47
2022-10-06T13:51:47.820Z,2.73
2022-10-06T13:55:57.507Z,2.93
2022-10-06T14:00:20.683Z,3.07
2022-10-06T14:04:29.866Z,2.87
2022-10-06T14:08:40.947Z,3.00
2022-10-06T14:12:50.847Z,2.40
2022-10-06T14:17:00.124Z,3.33
2022-10-06T14:21:20.566Z,2.77
2022-10-06T14:25:31.067Z,3.13
2022-10-06T14:29:41.585Z,2.87
2022-10-06T14:33:52.986Z,2.87
2022-10-06T14:38:01.886Z,2.80
2022-10-06T14:42:13.801Z,3.37
2022-10-06T14:46:23.516Z,2.67
2022-10-06T14:50:32.900Z,2.93
2022-10-06T14:54:43.203Z,2.60
2022-10-06T14:58:54.412Z,2.90
2022-10-06T15:03:03.539Z,3.30
2022-10-06T15:07:29.567Z,2.77
2022-10-06T15:11:39.794Z,2.83
2022-10-06T15:15:51.441Z,2.80
2022-10-06T15:20:00.406Z,2.90
2022-10-06T15:24:12.884Z,3.10
2022-10-06T15:28:39.024Z,3.37
2022-10-06T15:32:50.066Z,3.20
2022-10-06T15:36:59.725Z,2.80
2022-10-06T15:41:08.787Z,2.40
2022-10-06T15:45:17.885Z,2.40
2022-10-06T15:49:29.805Z,2.37
2022-10-06T15:53:38.925Z,3.10
2022-10-06T15:57:47.784Z,3.20
2022-10-06T16:01:58.570Z,2.97
2022-10-06T16:06:09.609Z,2.87
2022-10-06T16:10:18.761Z,3.23
2022-10-06T16:14:28.265Z,3.63
2022-10-06T16:18:37.184Z,2.80
2022-10-06T16:22:47.505Z,2.40
2022-10-06T16:26:58.305Z,2.93
2022-10-06T16:31:07.519Z,2.70
2022-10-06T16:35:18.442Z,3.30
2022-10-06T16:39:29.144Z,3.67
2022-10-06T16:43:40.185Z,2.83
2022-10-06T16:47:49.246Z,3.07
2022-10-06T16:51:58.303Z,3.30
2022-10-06T16:56:11.079Z,2.50
2022-10-06T17:00:20.423Z,2.77
2022-10-06T17:04:29.608Z,2.93
2022-10-06T17:08:40.083Z,3.00
2022-10-06T17:12:50.687Z,2.90
2022-10-06T17:17:00.405Z,2.67
2022-10-06T17:21:39.658Z,2.90
2022-10-06T17:25:41.026Z,3.17
2022-10-06T17:29:51.749Z,2.60
2022-10-06T17:34:01.384Z,2.60
2022-10-06T17:38:10.886Z,2.70
2022-10-06T17:42:19.966Z,2.70
2022-10-06T17:46:31.545Z,2.90
2022-10-06T17:50:40.717Z,2.60
2022-10-06T17:54:50.025Z,2.67
2022-10-06T17:59:01.046Z,3.03
2022-10-06T18:03:11.764Z,3.23
2022-10-06T18:07:21.085Z,2.70
2022-10-06T18:11:36.304Z,2.70
2022-10-06T18:15:45.466Z,3.27
2022-10-06T18:19:58.042Z,3.03
2022-10-06T18:24:09.065Z,2.80
2022-10-06T18:28:18.354Z,3.17
2022-10-06T18:34:10.808Z,2.37
2022-10-06T18:36:58.225Z,3.07
2022-10-06T18:41:09.385Z,2.40
2022-10-06T18:45:39.437Z,2.77
2022-10-06T18:49:49.005Z,3.63
2022-10-06T18:54:00.088Z,2.40
2022-10-06T18:58:09.813Z,2.97
2022-10-06T19:02:19.154Z,2.53
2022-10-06T19:06:30.686Z,2.27
2022-10-06T19:11:01.686Z,2.00
2022-10-06T19:15:13.019Z,2.77
2022-10-06T19:19:27.873Z,2.80
2022-10-06T19:23:39.106Z,3.43
2022-10-06T19:27:51.445Z,3.17
2022-10-06T19:32:03.645Z,2.67
2022-10-06T19:36:22.766Z,2.70
2022-10-06T19:40:34.865Z,2.63
2022-10-06T19:44:46.846Z,2.40
2022-10-06T19:48:59.284Z,2.47
2022-10-06T19:53:09.007Z,4.70
2022-10-06T19:57:18.465Z,4.17
2022-10-06T20:01:31.530Z,4.57
2022-10-06T20:05:41.946Z,4.30
2022-10-06T20:09:51.569Z,3.60
2022-10-06T20:14:00.725Z,2.87
2022-10-06T20:18:12.489Z,3.13
2022-10-06T20:22:22.168Z,3.73
2022-10-06T20:26:33.524Z,3.90
2022-10-06T20:30:50.969Z,3.83
2022-10-06T20:35:06.748Z,3.20
2022-10-06T20:39:34.985Z,2.77
2022-10-06T20:43:44.485Z,3.30
2022-10-06T20:47:53.947Z,3.47
2022-10-06T20:52:05.052Z,2.80
2022-10-06T20:56:14.448Z,2.60
2022-10-06T21:00:23.931Z,3.60
2022-10-06T21:04:33.111Z,2.30
2022-10-06T21:08:45.132Z,2.50
2022-10-06T21:12:55.492Z,3.10
2022-10-06T21:17:05.653Z,2.70
2022-10-06T21:21:15.833Z,3.33
2022-10-06T21:25:26.693Z,3.30
2022-10-06T21:29:35.892Z,2.87
2022-10-06T21:33:47.030Z,2.90
2022-10-06T21:37:56.450Z,3.27
2022-10-06T21:42:07.512Z,3.17
2022-10-06T21:46:28.051Z,3.20
2022-10-06T21:50:37.995Z,2.70
2022-10-06T21:54:47.432Z,3.40
2022-10-06T21:58:58.676Z,2.80
2022-10-06T22:03:07.913Z,2.30
2022-10-06T22:07:17.054Z,3.07
2022-10-06T22:11:28.232Z,3.00
2022-10-06T22:15:39.550Z,3.37
2022-10-06T22:19:48.853Z,2.97
2022-10-06T22:24:00.374Z,3.13
2022-10-06T22:28:09.672Z,3.30
2022-10-06T22:32:23.496Z,3.20
2022-10-06T22:36:33.643Z,1.90
2022-10-06T22:40:42.874Z,2.37
2022-10-06T22:44:52.150Z,3.50
2022-10-06T22:49:03.370Z,2.70
2022-10-06T22:53:12.529Z,2.80
2022-10-06T22:57:21.929Z,2.80
2022-10-06T23:01:31.990Z,3.30
2022-10-06T23:05:42.911Z,2.60
2022-10-06T23:09:52.392Z,2.53
2022-10-06T23:14:03.249Z,3.03
2022-10-06T23:18:12.614Z,3.17
2022-10-06T23:22:23.522Z,2.00
2022-10-06T23:26:34.491Z,2.90
2022-10-06T23:30:46.450Z,2.90
2022-10-06T23:34:56.151Z,3.03
2022-10-06T23:39:07.110Z,2.53
2022-10-06T23:43:16.610Z,2.27
2022-10-06T23:47:26.263Z,2.07
2022-10-06T23:51:35.650Z,2.63
2022-10-06T23:55:46.430Z,1.83
2022-10-06T23:59:55.735Z,2.00
